Algodones, New Mexico
Current Conditions -  °F | °C
As of 8:52 AM on Monday 24 Nov 2014 (Local Time) from KABQ Reporting Station
Scattered Clouds Scattered Clouds  
Wind Chill: -2°   Ceiling: Unl
Heat Index:   Visibility: 10mi
Dew Point: -13°   Wind: 5mph
Humidity: 37%   Direction: NA
Pressure: 30.19"   Gusts: NA
Location:  35.38°N, 106.48°W
Report Text: KABQ 241552Z VRB04KT 10SM FEW100 SCT200 01/M13 A3019 RMK AO2 SLP226 T00061128
Loading
Personal Weather Stations






























Interactive Weather Map New forecast layout! Learn more

10-Day Weather Forecast

Advertisements
Track Severe Weather on mobile